Time;durP1;ratioP1;P1;durP2;ratioP2;P2;SDS_P1;SDS_P2;PMS_P1;PMS_P2;Temp;Humidity;BMP_temperature;BMP_pressure;BME280_temperature;BME280_humidity;BME280_pressure;Samples;Min_cycle;Max_cycle;Signal;HPM_P1;HPM_P2
2021/08/14 00:01:56;;;;;;;13.23;7.93;;;23.10;99.90;;;;;;5091598;28;20802;-63
2021/08/14 00:04:23;;;;;;;16.80;8.57;;;23.10;99.90;;;;;;5089935;28;20988;-62
2021/08/14 00:06:50;;;;;;;13.53;8.10;;;23.00;99.90;;;;;;5085004;28;20455;-63
2021/08/14 00:09:17;;;;;;;15.83;7.80;;;23.00;99.90;;;;;;5071371;28;20479;-62
2021/08/14 00:11:45;;;;;;;11.40;7.70;;;23.00;99.90;;;;;;5078816;28;20523;-64
2021/08/14 00:14:12;;;;;;;10.10;7.57;;;23.00;99.90;;;;;;5091717;28;20445;-63
2021/08/14 00:16:39;;;;;;;12.70;8.00;;;23.00;99.90;;;;;;5091593;28;20450;-62
2021/08/14 00:19:06;;;;;;;11.60;7.60;;;23.00;99.90;;;;;;5091547;28;20530;-64
2021/08/14 00:21:33;;;;;;;15.27;7.80;;;22.90;99.90;;;;;;5088779;28;20454;-62
2021/08/14 00:24:00;;;;;;;13.23;7.17;;;22.90;99.90;;;;;;5091222;28;20507;-63
2021/08/14 00:26:27;;;;;;;8.73;7.07;;;22.90;99.90;;;;;;5091858;28;20454;-62
2021/08/14 00:28:56;;;;;;;8.80;7.83;;;22.80;99.90;;;;;;5091201;28;20543;-62
2021/08/14 00:31:23;;;;;;;11.67;7.13;;;22.80;99.90;;;;;;5091146;28;20910;-63
2021/08/14 00:33:50;;;;;;;13.20;8.07;;;22.80;99.90;;;;;;5091317;28;20992;-62
2021/08/14 00:36:17;;;;;;;13.10;7.80;;;22.80;99.90;;;;;;5091574;28;20483;-62
2021/08/14 00:38:44;;;;;;;12.80;7.10;;;22.80;99.90;;;;;;5084872;28;20466;-60
2021/08/14 00:41:11;;;;;;;14.20;7.70;;;22.80;99.90;;;;;;5073589;28;20450;-61
2021/08/14 00:43:39;;;;;;;11.07;7.50;;;22.80;99.90;;;;;;5092828;28;20445;-60
2021/08/14 00:46:07;;;;;;;13.67;8.10;;;22.80;99.90;;;;;;5095697;28;20506;-61
2021/08/14 00:48:35;;;;;;;8.27;6.63;;;22.70;99.90;;;;;;5095659;28;20491;-61
2021/08/14 00:51:02;;;;;;;14.40;7.27;;;22.70;99.90;;;;;;5095191;28;20550;-60
2021/08/14 00:53:29;;;;;;;15.33;7.87;;;22.80;99.90;;;;;;5095712;28;20975;-60
2021/08/14 00:55:56;;;;;;;11.53;8.33;;;22.80;99.90;;;;;;5085207;28;20955;-61
2021/08/14 00:58:23;;;;;;;9.17;7.70;;;22.80;99.90;;;;;;5078014;28;20527;-60
2021/08/14 01:00:50;;;;;;;11.47;8.27;;;22.60;99.90;;;;;;5095418;28;20984;-61
2021/08/14 01:03:19;;;;;;;11.13;8.10;;;22.60;99.90;;;;;;5095055;28;20441;-61
2021/08/14 01:05:46;;;;;;;9.80;7.47;;;22.60;99.90;;;;;;5095277;28;20445;-61
2021/08/14 01:08:15;;;;;;;11.03;8.10;;;22.50;99.90;;;;;;5094714;28;20485;-61
2021/08/14 01:10:42;;;;;;;8.40;6.83;;;22.60;99.90;;;;;;5095334;28;20531;-61
2021/08/14 01:13:10;;;;;;;13.87;7.90;;;22.60;99.90;;;;;;5093013;28;20449;-61
2021/08/14 01:15:40;;;;;;;8.73;7.57;;;22.60;99.90;;;;;;5094855;28;20954;-61
2021/08/14 01:18:08;;;;;;;12.20;7.40;;;22.70;99.90;;;;;;5094702;28;20465;-61
2021/08/14 01:20:36;;;;;;;10.43;8.57;;;22.70;99.90;;;;;;5075025;28;20442;-60
2021/08/14 01:23:05;;;;;;;17.40;8.10;;;22.70;99.90;;;;;;5074487;28;20451;-60
2021/08/14 01:25:32;;;;;;;13.60;8.10;;;22.60;99.90;;;;;;5074864;28;20455;-61
2021/08/14 01:28:00;;;;;;;13.57;7.83;;;22.60;99.90;;;;;;5074640;28;20516;-61
2021/08/14 01:30:27;;;;;;;19.63;8.73;;;22.60;99.90;;;;;;5091923;28;21067;-61
2021/08/14 01:32:55;;;;;;;18.83;8.87;;;22.60;99.90;;;;;;5094481;28;20514;-60
2021/08/14 01:35:22;;;;;;;14.70;8.40;;;22.20;99.90;;;;;;5095034;28;20449;-60
2021/08/14 01:37:49;;;;;;;13.20;8.77;;;21.80;99.90;;;;;;5094660;28;20882;-60
2021/08/14 01:40:16;;;;;;;12.90;7.97;;;21.70;99.90;;;;;;5094232;28;20454;-61
2021/08/14 01:42:43;;;;;;;17.43;8.73;;;21.80;99.90;;;;;;5094459;28;20499;-61
2021/08/14 01:45:12;;;;;;;13.60;8.40;;;21.90;99.90;;;;;;5092604;28;20446;-62
2021/08/14 01:47:39;;;;;;;10.43;8.13;;;22.00;99.90;;;;;;5074430;28;20500;-61
2021/08/14 01:50:07;;;;;;;13.47;8.20;;;22.00;99.90;;;;;;5089659;28;20445;-61
2021/08/14 01:52:34;;;;;;;12.70;8.20;;;22.10;99.90;;;;;;5094185;28;21001;-61
2021/08/14 01:55:01;;;;;;;17.73;9.63;;;22.20;99.90;;;;;;5092926;28;20944;-61
2021/08/14 01:57:27;;;;;;;18.37;8.73;;;22.00;99.90;;;;;;5094269;28;20502;-60
2021/08/14 01:59:54;;;;;;;12.57;8.83;;;22.00;99.90;;;;;;5093170;28;20501;-60
2021/08/14 02:02:23;;;;;;;12.20;9.00;;;22.00;99.90;;;;;;5093568;28;20446;-61
2021/08/14 02:04:50;;;;;;;14.37;8.63;;;21.90;99.90;;;;;;5094412;28;20446;-61
2021/08/14 02:07:17;;;;;;;12.70;8.10;;;21.90;99.90;;;;;;5094294;28;20503;-60
2021/08/14 02:09:44;;;;;;;13.13;8.73;;;22.00;99.90;;;;;;5093526;28;20521;-60
2021/08/14 02:12:12;;;;;;;13.47;7.63;;;22.00;99.90;;;;;;5093287;28;20523;-61
2021/08/14 02:14:39;;;;;;;17.30;8.23;;;22.00;99.90;;;;;;5092966;28;20454;-60
2021/08/14 02:17:05;;;;;;;14.80;8.83;;;21.90;99.90;;;;;;5093788;28;20458;-61
2021/08/14 02:19:34;;;;;;;10.30;8.60;;;21.90;99.90;;;;;;5093643;28;20515;-60
2021/08/14 02:22:01;;;;;;;13.53;7.63;;;21.90;99.90;;;;;;5093656;28;20502;-60
2021/08/14 02:24:28;;;;;;;15.20;9.53;;;21.90;99.90;;;;;;5093848;28;20538;-61
2021/08/14 02:26:54;;;;;;;14.63;8.90;;;21.90;99.90;;;;;;5093417;28;21284;-61
2021/08/14 02:29:21;;;;;;;16.40;9.83;;;21.80;99.90;;;;;;5092411;28;20473;-61
2021/08/14 02:31:48;;;;;;;15.90;9.20;;;21.80;99.90;;;;;;5073485;28;20482;-60
2021/08/14 02:34:15;;;;;;;19.07;9.00;;;21.80;99.90;;;;;;5073515;28;20510;-61
2021/08/14 02:36:44;;;;;;;17.90;9.40;;;21.80;99.90;;;;;;5083739;28;20872;-60
2021/08/14 02:39:11;;;;;;;11.60;8.33;;;21.90;99.90;;;;;;5093453;28;20469;-61
2021/08/14 02:41:38;;;;;;;17.73;9.00;;;21.80;99.90;;;;;;5093766;28;20454;-60
2021/08/14 02:44:05;;;;;;;13.73;9.33;;;21.90;99.90;;;;;;5093230;28;20449;-61
2021/08/14 02:46:32;;;;;;;11.63;8.37;;;21.80;99.90;;;;;;5089577;28;20455;-61
2021/08/14 02:48:59;;;;;;;12.23;8.27;;;21.80;99.90;;;;;;5073202;28;20471;-61
2021/08/14 02:51:26;;;;;;;14.30;8.23;;;21.80;99.90;;;;;;5073068;28;20531;-60
2021/08/14 02:53:54;;;;;;;13.33;8.57;;;21.80;99.90;;;;;;5072754;28;20500;-61
2021/08/14 02:56:21;;;;;;;15.40;8.80;;;21.80;99.90;;;;;;5079959;28;20450;-60
2021/08/14 02:58:48;;;;;;;15.70;9.07;;;21.70;99.90;;;;;;5093317;28;20519;-60
2021/08/14 03:01:15;;;;;;;15.63;9.23;;;21.70;99.90;;;;;;5093027;28;20446;-61
2021/08/14 03:03:42;;;;;;;16.27;8.03;;;21.70;99.90;;;;;;5092353;28;20454;-61
2021/08/14 03:06:23;;;;;;;10.50;7.80;;;21.70;99.90;;;;;;5092199;28;20454;-61
2021/08/14 03:08:50;;;;;;;18.37;8.70;;;21.80;99.90;;;;;;5092798;28;20782;-60
2021/08/14 03:11:18;;;;;;;12.43;9.60;;;21.80;99.90;;;;;;5092575;28;20478;-61
2021/08/14 03:13:45;;;;;;;12.60;8.60;;;21.70;99.90;;;;;;5072537;28;20497;-60
2021/08/14 03:16:12;;;;;;;11.03;8.40;;;21.70;99.90;;;;;;5077480;28;20507;-61
2021/08/14 03:18:39;;;;;;;16.57;8.33;;;21.80;99.90;;;;;;5091082;28;20523;-62
2021/08/14 03:21:06;;;;;;;11.00;8.23;;;21.70;99.90;;;;;;5087503;28;20442;-61
2021/08/14 03:23:33;;;;;;;16.43;8.70;;;21.70;99.90;;;;;;5091706;28;20454;-60
2021/08/14 03:26:00;;;;;;;11.90;8.50;;;21.70;99.90;;;;;;5079704;28;20450;-60
2021/08/14 03:28:29;;;;;;;14.20;8.40;;;21.70;99.90;;;;;;5072292;28;20479;-61
2021/08/14 03:30:56;;;;;;;17.30;9.03;;;21.70;99.90;;;;;;5072093;28;21010;-60
2021/08/14 03:33:23;;;;;;;16.50;9.50;;;21.70;99.90;;;;;;5071955;28;20531;-60
2021/08/14 03:35:50;;;;;;;15.10;9.27;;;21.70;99.90;;;;;;5072456;28;20892;-60
2021/08/14 03:38:17;;;;;;;15.40;10.40;;;21.70;99.90;;;;;;5087429;28;20462;-60
2021/08/14 03:40:44;;;;;;;16.00;9.50;;;21.70;99.90;;;;;;5092458;28;20446;-60
2021/08/14 03:43:12;;;;;;;13.33;8.97;;;21.60;99.90;;;;;;5092079;28;20931;-61
2021/08/14 03:45:40;;;;;;;17.47;9.00;;;21.60;99.90;;;;;;5092216;28;20446;-60
2021/08/14 03:48:08;;;;;;;12.13;8.30;;;21.60;99.90;;;;;;5091131;28;20491;-60
2021/08/14 03:50:35;;;;;;;13.30;9.53;;;21.60;99.90;;;;;;5090102;28;20530;-60
2021/08/14 03:53:02;;;;;;;12.27;9.43;;;21.70;99.90;;;;;;5071706;28;20442;-61
2021/08/14 03:55:29;;;;;;;14.03;9.70;;;21.70;99.90;;;;;;5071998;28;20513;-60
2021/08/14 03:57:56;;;;;;;15.07;10.33;;;21.70;99.90;;;;;;5071742;28;20524;-61
2021/08/14 04:00:23;;;;;;;16.83;9.27;;;21.70;99.90;;;;;;5071691;28;20447;-60
2021/08/14 04:02:52;;;;;;;17.13;9.60;;;21.70;99.90;;;;;;5080931;28;20499;-60
2021/08/14 04:05:19;;;;;;;14.23;10.03;;;21.70;99.90;;;;;;5092131;28;20446;-60
2021/08/14 04:07:46;;;;;;;14.80;10.43;;;21.70;99.90;;;;;;5116237;22;20477;-56
2021/08/14 04:10:14;;;;;;;11.43;9.13;;;21.70;99.90;;;;;;5069986;28;20500;-56
2021/08/14 04:12:41;;;;;;;13.60;9.20;;;21.70;99.90;;;;;;5071179;28;20483;-57
2021/08/14 04:15:09;;;;;;;14.37;10.10;;;21.70;99.90;;;;;;5071743;28;20876;-56
2021/08/14 04:17:36;;;;;;;11.80;8.40;;;21.70;99.90;;;;;;5070659;28;20451;-55
2021/08/14 04:20:06;;;;;;;16.83;10.67;;;21.80;99.90;;;;;;5070809;28;20485;-55
2021/08/14 04:22:33;;;;;;;18.37;10.70;;;21.70;99.90;;;;;;5071358;28;20508;-57
2021/08/14 04:25:00;;;;;;;13.97;11.43;;;21.60;99.90;;;;;;5071747;28;20443;-55
2021/08/14 04:27:27;;;;;;;14.87;12.73;;;21.60;99.90;;;;;;5071479;28;20936;-56
2021/08/14 04:29:54;;;;;;;13.57;10.87;;;21.50;99.90;;;;;;5083108;28;20465;-55
2021/08/14 04:32:21;;;;;;;17.63;10.93;;;21.40;99.90;;;;;;5091505;28;20534;-56
2021/08/14 04:34:48;;;;;;;13.13;9.60;;;21.40;99.90;;;;;;5091739;28;20449;-55
2021/08/14 04:37:20;;;;;;;14.00;10.00;;;21.50;99.90;;;;;;5085841;28;20479;-56
2021/08/14 04:39:47;;;;;;;16.43;9.63;;;21.40;99.90;;;;;;5060869;28;20470;-56
2021/08/14 04:42:14;;;;;;;24.33;11.23;;;21.40;99.90;;;;;;5071177;28;20447;-56
2021/08/14 04:44:41;;;;;;;18.20;9.73;;;21.40;99.90;;;;;;5071410;28;20458;-54
2021/08/14 04:47:08;;;;;;;10.60;8.50;;;21.40;99.90;;;;;;5085187;28;20955;-55
2021/08/14 04:49:35;;;;;;;19.33;10.47;;;21.50;99.90;;;;;;5072654;28;20547;-54
2021/08/14 04:52:02;;;;;;;15.37;10.43;;;21.70;99.90;;;;;;5071236;28;20483;-54
2021/08/14 04:54:30;;;;;;;16.30;10.20;;;21.80;99.90;;;;;;5071326;28;20504;-55
2021/08/14 04:56:57;;;;;;;19.53;11.20;;;22.10;99.90;;;;;;5071298;28;20443;-54
2021/08/14 04:59:24;;;;;;;21.37;10.53;;;22.30;99.90;;;;;;5071262;28;20479;-54
2021/08/14 05:01:51;;;;;;;14.53;9.87;;;22.40;99.90;;;;;;5071543;28;20455;-54
2021/08/14 05:04:18;;;;;;;17.83;11.03;;;22.50;99.90;;;;;;5051432;28;20459;-55
2021/08/14 05:06:45;;;;;;;15.00;10.63;;;22.60;99.90;;;;;;5053975;28;20455;-55
2021/08/14 05:09:12;;;;;;;13.30;9.50;;;22.50;99.90;;;;;;5070304;28;20490;-54
2021/08/14 05:11:41;;;;;;;13.80;9.87;;;22.40;99.90;;;;;;5070451;28;20532;-55
2021/08/14 05:14:08;;;;;;;18.80;11.03;;;22.40;99.90;;;;;;5070329;28;20443;-54
2021/08/14 05:16:36;;;;;;;10.87;9.10;;;22.60;99.90;;;;;;5070945;28;20458;-54
2021/08/14 05:19:03;;;;;;;16.03;10.33;;;23.00;99.90;;;;;;5071924;28;20470;-53
2021/08/14 05:21:31;;;;;;;16.70;9.50;;;23.40;99.90;;;;;;5069942;28;20470;-54
2021/08/14 05:23:58;;;;;;;11.40;8.90;;;23.80;99.90;;;;;;5083548;28;20499;-54
2021/08/14 05:26:25;;;;;;;18.80;10.27;;;24.30;99.90;;;;;;5091120;28;20454;-55
2021/08/14 05:28:53;;;;;;;16.13;10.50;;;24.70;99.90;;;;;;5071514;28;20470;-55
2021/08/14 05:31:20;;;;;;;15.20;9.07;;;24.90;99.90;;;;;;5074812;28;20584;-55
2021/08/14 05:33:47;;;;;;;12.77;9.30;;;25.10;99.90;;;;;;5080211;28;20491;-55
2021/08/14 05:36:15;;;;;;;18.90;10.00;;;25.00;99.90;;;;;;5095100;28;20495;-55
2021/08/14 05:38:42;;;;;;;11.00;8.80;;;24.70;99.90;;;;;;5094523;28;20465;-55
2021/08/14 05:41:10;;;;;;;15.53;9.30;;;24.60;99.90;;;;;;5074395;28;20823;-54
2021/08/14 05:43:37;;;;;;;12.70;8.33;;;24.60;99.90;;;;;;5074485;28;20837;-55
2021/08/14 05:46:05;;;;;;;14.93;8.50;;;24.80;99.90;;;;;;5074452;28;20454;-55
2021/08/14 05:48:32;;;;;;;13.97;8.40;;;25.30;99.90;;;;;;5074119;28;20466;-55
2021/08/14 05:50:59;;;;;;;12.40;7.70;;;26.00;99.90;;;;;;5085682;28;20927;-55
2021/08/14 05:53:26;;;;;;;9.80;7.60;;;26.50;99.90;;;;;;5093566;28;20531;-54
2021/08/14 05:55:53;;;;;;;10.67;7.30;;;27.00;99.90;;;;;;5094681;28;20446;-55
2021/08/14 05:58:20;;;;;;;12.10;7.17;;;27.30;99.90;;;;;;5094553;28;20873;-54
2021/08/14 06:00:47;;;;;;;11.10;7.17;;;27.60;99.90;;;;;;5094520;28;20507;-54
2021/08/14 06:03:15;;;;;;;13.90;8.00;;;28.00;99.90;;;;;;5094230;28;20445;-55
2021/08/14 06:05:45;;;;;;;10.10;7.50;;;28.40;99.90;;;;;;5088490;28;20443;-55
2021/08/14 06:08:13;;;;;;;11.13;7.77;;;28.80;99.90;;;;;;5068769;28;20487;-55
2021/08/14 06:10:40;;;;;;;15.70;7.60;;;29.20;99.90;;;;;;5073890;28;20443;-55
2021/08/14 06:13:07;;;;;;;13.97;7.83;;;29.50;99.90;;;;;;5073644;28;20482;-55
2021/08/14 06:15:34;;;;;;;9.53;7.20;;;29.50;99.90;;;;;;5073067;28;20451;-56
2021/08/14 06:18:01;;;;;;;15.57;7.30;;;29.50;99.90;;;;;;5073265;28;20815;-55
2021/08/14 06:20:30;;;;;;;9.77;7.13;;;29.70;99.90;;;;;;5073313;28;20863;-55
2021/08/14 06:22:56;;;;;;;13.18;7.35;;;29.90;99.90;;;;;;5075121;28;20441;-55
2021/08/14 06:25:25;;;;;;;12.40;7.77;;;30.20;99.90;;;;;;5072969;28;20640;-55
2021/08/14 06:27:52;;;;;;;10.90;8.03;;;30.50;99.90;;;;;;5072622;28;20443;-55
2021/08/14 06:30:19;;;;;;;11.67;7.20;;;30.60;99.90;;;;;;5073064;28;20446;-55
2021/08/14 06:32:47;;;;;;;12.83;7.23;;;30.40;99.90;;;;;;5079862;28;20548;-55
2021/08/14 06:35:20;;;;;;;13.00;7.57;;;30.60;99.90;;;;;;5069932;28;20462;-57
2021/08/14 06:38:01;;;;;;;14.40;7.70;;;30.80;99.90;;;;;;5066512;28;20447;-56
2021/08/14 06:40:30;;;;;;;10.90;7.23;;;30.70;99.90;;;;;;5072244;28;20525;-56
2021/08/14 06:43:00;;;;;;;9.63;7.17;;;30.90;99.90;;;;;;5070941;28;20458;-56
2021/08/14 06:45:28;;;;;;;11.87;6.43;;;30.90;99.90;;;;;;5072841;28;20530;-57
2021/08/14 06:47:56;;;;;;;12.87;6.90;;;30.90;99.90;;;;;;5073221;28;20534;-57
2021/08/14 06:50:23;;;;;;;12.73;7.40;;;31.00;99.90;;;;;;5069011;28;20502;-55
2021/08/14 06:52:51;;;;;;;9.07;6.90;;;31.10;99.90;;;;;;5071916;28;20482;-56
2021/08/14 06:55:18;;;;;;;10.83;6.83;;;31.00;99.90;;;;;;5070908;28;20505;-56
2021/08/14 06:57:45;;;;;;;11.50;7.67;;;31.30;99.90;;;;;;5069514;28;20528;-56
2021/08/14 07:00:14;;;;;;;14.40;7.97;;;31.40;99.90;;;;;;5072063;28;20451;-58
2021/08/14 07:02:42;;;;;;;12.70;9.93;;;31.70;99.90;;;;;;5071548;28;20439;-56
2021/08/14 07:05:10;;;;;;;11.30;7.63;;;31.40;99.90;;;;;;5072768;28;20489;-56
2021/08/14 07:07:37;;;;;;;17.97;7.90;;;31.40;99.90;;;;;;5071124;28;20467;-55
2021/08/14 07:10:08;;;;;;;12.90;7.73;;;31.10;99.90;;;;;;5072362;28;20501;-55
2021/08/14 07:12:35;;;;;;;13.43;8.10;;;30.90;99.90;;;;;;5072113;28;20482;-55
2021/08/14 07:15:02;;;;;;;15.10;7.57;;;30.60;99.90;;;;;;5072245;28;20522;-55
2021/08/14 07:17:31;;;;;;;15.40;7.53;;;31.00;99.90;;;;;;5072251;28;21007;-56
2021/08/14 07:19:59;;;;;;;20.20;9.20;;;31.40;99.90;;;;;;5072354;28;20475;-55
2021/08/14 07:22:27;;;;;;;15.87;8.10;;;31.20;99.90;;;;;;5072571;28;20454;-56
2021/08/14 07:24:55;;;;;;;14.53;7.70;;;31.30;99.90;;;;;;5070728;28;20470;-56
2021/08/14 07:27:27;;;;;;;8.87;7.70;;;31.60;99.90;;;;;;5072090;28;20889;-56
2021/08/14 07:29:54;;;;;;;10.83;7.80;;;31.80;99.90;;;;;;5068334;28;20893;-56
2021/08/14 07:32:21;;;;;;;11.03;6.90;;;31.80;99.90;;;;;;5057000;28;20873;-57
2021/08/14 07:34:48;;;;;;;12.03;7.07;;;31.80;99.90;;;;;;5071943;28;20459;-55
2021/08/14 07:37:16;;;;;;;12.80;7.50;;;31.60;99.90;;;;;;5071824;28;20473;-56
2021/08/14 07:39:43;;;;;;;13.57;7.70;;;31.70;99.90;;;;;;5071901;28;20896;-56
2021/08/14 07:42:10;;;;;;;11.97;8.27;;;32.30;99.90;;;;;;5067450;28;20448;-56
2021/08/14 07:44:38;;;;;;;13.90;8.13;;;32.70;99.90;;;;;;5052171;28;20454;-56
2021/08/14 07:47:05;;;;;;;12.20;7.67;;;32.70;99.90;;;;;;5052098;28;20456;-56
2021/08/14 07:49:32;;;;;;;9.10;6.90;;;32.60;99.90;;;;;;5051968;28;20474;-56
2021/08/14 07:51:59;;;;;;;11.97;7.20;;;32.30;99.90;;;;;;5063706;28;20845;-55
2021/08/14 07:54:28;;;;;;;11.43;6.90;;;32.40;99.90;;;;;;5064761;28;20508;-57
2021/08/14 07:56:56;;;;;;;15.30;7.33;;;32.40;99.90;;;;;;5071703;28;20868;-58
2021/08/14 07:59:23;;;;;;;9.63;6.67;;;32.40;99.90;;;;;;5071741;28;20498;-57
2021/08/14 08:01:51;;;;;;;15.63;6.87;;;32.60;99.90;;;;;;5071161;28;20458;-58
2021/08/14 08:04:18;;;;;;;9.37;6.33;;;32.60;99.90;;;;;;5071617;28;20521;-58
2021/08/14 08:06:46;;;;;;;12.20;6.37;;;32.60;99.90;;;;;;5071961;28;20451;-56
2021/08/14 08:09:12;;;;;;;9.87;7.27;;;32.80;99.90;;;;;;5084892;28;20860;-59
2021/08/14 08:11:40;;;;;;;12.63;9.60;;;33.00;99.90;;;;;;5091922;28;20495;-57
2021/08/14 08:14:07;;;;;;;12.20;8.07;;;32.90;99.90;;;;;;5091518;28;21002;-57
2021/08/14 08:16:34;;;;;;;11.23;7.00;;;33.10;99.90;;;;;;5083995;28;20512;-56
2021/08/14 08:19:02;;;;;;;9.20;6.97;;;33.60;99.90;;;;;;5071801;28;20862;-58
2021/08/14 08:21:29;;;;;;;15.33;7.87;;;33.70;99.90;;;;;;5071591;28;20455;-57
2021/08/14 08:23:56;;;;;;;10.30;6.50;;;33.60;99.90;;;;;;5071430;28;20526;-58
2021/08/14 08:26:24;;;;;;;8.97;6.50;;;34.00;99.90;;;;;;5091035;28;20460;-57
2021/08/14 08:28:52;;;;;;;11.50;7.43;;;34.40;99.90;;;;;;5091793;28;20474;-58
2021/08/14 08:31:19;;;;;;;11.93;6.93;;;34.20;99.90;;;;;;5091773;28;20951;-58
2021/08/14 08:33:46;;;;;;;14.00;8.27;;;33.90;99.90;;;;;;5070853;28;20478;-56
2021/08/14 08:36:14;;;;;;;8.60;6.83;;;34.20;99.90;;;;;;5069882;28;20516;-58
2021/08/14 08:38:41;;;;;;;11.07;6.90;;;34.50;99.90;;;;;;5068579;28;20453;-56
2021/08/14 08:41:10;;;;;;;13.00;7.03;;;33.90;99.90;;;;;;5070650;28;20199;-57
2021/08/14 08:43:40;;;;;;;15.87;10.63;;;33.90;99.90;;;;;;5070960;28;21018;-57
2021/08/14 08:46:10;;;;;;;12.40;7.93;;;33.80;99.90;;;;;;5071324;28;20941;-58
2021/08/14 08:48:38;;;;;;;14.10;7.27;;;33.50;99.90;;;;;;5070931;28;20544;-57
2021/08/14 08:51:06;;;;;;;11.93;7.50;;;34.00;99.90;;;;;;5070174;28;20530;-57
2021/08/14 08:53:34;;;;;;;11.77;6.80;;;34.50;99.90;;;;;;5068726;28;21074;-57
2021/08/14 08:56:01;;;;;;;16.70;7.27;;;34.50;99.90;;;;;;5071079;28;20444;-56
2021/08/14 08:58:28;;;;;;;14.40;7.80;;;34.60;99.90;;;;;;5070861;28;20895;-58
2021/08/14 09:00:55;;;;;;;13.97;7.20;;;34.70;99.90;;;;;;5070388;28;20446;-58
2021/08/14 09:03:28;;;;;;;11.83;6.50;;;35.00;99.90;;;;;;5071212;28;20508;-57
2021/08/14 09:05:56;;;;;;;15.90;7.37;;;35.00;99.90;;;;;;5074123;28;20818;-58
2021/08/14 09:08:23;;;;;;;9.87;6.83;;;35.20;99.90;;;;;;5074546;28;20482;-57
2021/08/14 09:11:08;;;;;;;12.30;8.00;;;34.90;99.90;;;;;;5075199;28;20450;-56
2021/08/14 09:13:35;;;;;;;11.63;7.20;;;34.30;99.90;;;;;;5074779;28;21088;-57
2021/08/14 09:16:17;;;;;;;12.03;7.33;;;34.20;99.90;;;;;;5075041;28;20442;-57
2021/08/14 09:18:53;;;;;;;10.57;6.67;;;34.70;99.90;;;;;;5074589;28;20532;-58
2021/08/14 09:21:30;;;;;;;11.50;6.53;;;34.70;99.90;;;;;;5074504;28;20470;-57
2021/08/14 09:23:57;;;;;;;10.57;6.93;;;34.50;99.90;;;;;;5073817;28;20507;-57
2021/08/14 09:26:26;;;;;;;9.80;6.40;;;34.20;99.90;;;;;;5074863;28;20447;-57
2021/08/14 09:29:03;;;;;;;8.37;6.90;;;34.60;99.90;;;;;;5074218;28;20458;-58
2021/08/14 09:31:48;;;;;;;9.07;7.00;;;34.40;99.90;;;;;;5074546;28;20538;-58
2021/08/14 09:34:16;;;;;;;10.00;7.13;;;34.50;99.90;;;;;;5074338;28;20475;-58
2021/08/14 09:36:43;;;;;;;18.93;7.30;;;34.70;99.90;;;;;;5074609;28;20895;-57
2021/08/14 09:39:10;;;;;;;11.83;7.47;;;34.20;99.90;;;;;;5073935;28;20463;-56
2021/08/14 09:41:38;;;;;;;13.40;7.40;;;34.30;99.90;;;;;;5074621;28;20461;-58
2021/08/14 09:44:14;;;;;;;11.23;8.10;;;34.70;99.90;;;;;;5074074;28;20496;-57
2021/08/14 09:46:43;;;;;;;10.57;7.60;;;34.60;99.90;;;;;;5074253;28;20538;-57
2021/08/14 09:49:10;;;;;;;11.40;6.93;;;34.60;99.90;;;;;;5073716;28;20462;-56
2021/08/14 09:51:39;;;;;;;14.50;7.20;;;34.80;99.90;;;;;;5073008;28;20873;-58
2021/08/14 09:54:06;;;;;;;12.73;7.00;;;34.90;99.90;;;;;;5073190;28;20474;-57
2021/08/14 09:56:35;;;;;;;11.80;6.83;;;34.90;99.90;;;;;;5073797;28;20964;-57
2021/08/14 09:59:05;;;;;;;8.47;6.80;;;34.80;99.90;;;;;;5073570;28;20546;-57
2021/08/14 10:01:33;;;;;;;11.83;7.47;;;35.10;99.90;;;;;;5073718;28;20897;-58
2021/08/14 10:04:01;;;;;;;9.17;7.00;;;34.90;99.40;;;;;;5073787;28;20474;-57
2021/08/14 10:06:29;;;;;;;15.20;7.90;;;35.00;99.90;;;;;;5074077;28;20476;-57
2021/08/14 10:08:56;;;;;;;12.93;7.40;;;35.10;99.90;;;;;;5073793;28;20991;-57
2021/08/14 10:11:23;;;;;;;11.40;7.03;;;34.20;99.90;;;;;;5073830;28;20455;-55
2021/08/14 10:13:51;;;;;;;13.03;7.53;;;33.40;99.90;;;;;;5071901;28;20876;-56
2021/08/14 10:16:19;;;;;;;15.97;8.23;;;33.70;99.90;;;;;;5072542;28;21088;-56
2021/08/14 10:18:47;;;;;;;15.73;7.67;;;33.60;99.90;;;;;;5073536;28;20462;-57
2021/08/14 10:21:16;;;;;;;13.23;7.33;;;33.70;99.90;;;;;;5073565;28;20993;-57
2021/08/14 10:23:46;;;;;;;8.93;7.07;;;33.70;99.90;;;;;;5073066;28;20442;-57
2021/08/14 10:26:17;;;;;;;11.20;7.20;;;34.00;99.90;;;;;;5073425;28;20451;-56
2021/08/14 10:28:49;;;;;;;10.50;7.17;;;34.50;99.90;;;;;;5087331;22;20555;-64
2021/08/14 10:31:49;;;;;;;12.68;7.47;;;34.30;99.90;;;;;;5055934;28;20438;-65
2021/08/14 10:34:30;;;;;;;14.23;7.33;;;34.60;99.90;;;;;;5073235;28;20479;-65
2021/08/14 10:36:57;;;;;;;14.67;7.60;;;34.20;99.90;;;;;;5056173;28;20486;-64
2021/08/14 10:39:26;;;;;;;9.60;7.53;;;34.50;99.90;;;;;;5052989;28;20545;-64
2021/08/14 10:41:54;;;;;;;12.17;7.73;;;34.70;99.90;;;;;;5052999;28;20451;-64
2021/08/14 10:44:42;;;;;;;12.30;7.70;;;34.80;99.90;;;;;;5053532;28;20456;-64
2021/08/14 10:47:44;;;;;;;11.23;7.23;;;34.90;99.90;;;;;;5053750;28;20487;-64
2021/08/14 10:50:50;;;;;;;12.63;8.00;;;35.20;99.90;;;;;;5072921;28;20470;-64
2021/08/14 10:53:20;;;;;;;10.77;7.70;;;34.70;99.90;;;;;;5072685;28;20573;-63
2021/08/14 10:55:48;;;;;;;14.57;8.47;;;33.90;99.90;;;;;;5072894;28;20454;-63
2021/08/14 10:58:22;;;;;;;14.23;7.27;;;33.90;99.90;;;;;;5063774;28;20451;-63
2021/08/14 11:00:49;;;;;;;13.63;7.83;;;33.70;99.90;;;;;;5049126;28;20594;-63
2021/08/14 11:03:20;;;;;;;16.10;8.63;;;32.80;99.90;;;;;;5036804;28;20451;-62
2021/08/14 11:05:48;;;;;;;10.87;6.97;;;32.60;99.90;;;;;;5052804;28;20539;-63
2021/08/14 11:08:26;;;;;;;14.33;7.00;;;32.30;99.90;;;;;;5052417;28;20933;-62
2021/08/14 11:10:55;;;;;;;11.40;6.63;;;32.30;99.90;;;;;;5052587;28;20447;-62
2021/08/14 11:13:42;;;;;;;16.27;7.37;;;32.00;99.90;;;;;;5066907;28;20504;-62
2021/08/14 11:16:10;;;;;;;21.87;8.43;;;31.90;99.90;;;;;;5063733;28;20455;-64
2021/08/14 11:19:00;;;;;;;16.90;8.70;;;31.80;99.90;;;;;;5052060;28;20521;-63
2021/08/14 11:21:44;;;;;;;12.17;8.50;;;31.50;99.90;;;;;;5052181;28;20448;-61
2021/08/14 11:24:11;;;;;;;11.33;8.87;;;31.80;99.90;;;;;;5052134;28;20445;-62
2021/08/14 11:26:39;;;;;;;13.53;8.27;;;32.20;99.90;;;;;;5058273;28;20504;-62
2021/08/14 11:29:08;;;;;;;15.23;9.17;;;32.20;99.90;;;;;;5062675;28;21020;-62
2021/08/14 11:31:35;;;;;;;14.90;8.93;;;31.70;99.90;;;;;;5052709;28;20475;-62
2021/08/14 11:34:12;;;;;;;16.50;8.70;;;31.20;99.90;;;;;;5052103;28;21009;-62
2021/08/14 11:36:40;;;;;;;20.73;9.80;;;30.80;99.90;;;;;;5052609;28;20448;-62
2021/08/14 11:39:07;;;;;;;13.80;9.20;;;31.00;99.90;;;;;;5052020;28;20472;-63
2021/08/14 11:41:35;;;;;;;14.30;9.00;;;30.90;99.90;;;;;;5055478;28;20493;-62
2021/08/14 11:44:03;;;;;;;13.40;8.83;;;30.90;99.90;;;;;;5057482;28;20839;-63
2021/08/14 11:46:31;;;;;;;26.33;9.47;;;31.00;99.90;;;;;;5072280;28;20451;-63
2021/08/14 11:49:02;;;;;;;17.63;9.73;;;31.10;99.90;;;;;;5062689;28;21004;-63
2021/08/14 11:51:31;;;;;;;12.50;9.80;;;31.10;99.90;;;;;;5051067;28;20490;-62
2021/08/14 11:54:07;;;;;;;13.80;9.03;;;30.90;99.90;;;;;;5051794;28;20529;-62
2021/08/14 11:56:35;;;;;;;13.70;8.87;;;31.20;99.90;;;;;;5049798;28;20999;-64
2021/08/14 11:59:02;;;;;;;16.47;8.77;;;31.40;99.90;;;;;;5051449;28;20471;-62
2021/08/14 12:01:29;;;;;;;15.13;8.63;;;31.70;99.90;;;;;;5052058;28;20837;-63
2021/08/14 12:03:57;;;;;;;11.33;8.30;;;31.30;99.90;;;;;;5051565;28;20443;-63
2021/08/14 12:06:28;;;;;;;14.03;9.07;;;30.50;99.90;;;;;;5051835;28;20513;-63
2021/08/14 12:08:58;;;;;;;13.87;8.77;;;30.30;99.90;;;;;;5051176;28;20877;-62
2021/08/14 12:11:27;;;;;;;14.13;7.90;;;30.30;99.90;;;;;;5052054;28;20933;-63
2021/08/14 12:14:17;;;;;;;12.23;7.30;;;30.60;99.90;;;;;;5051694;28;21113;-62
2021/08/14 12:16:46;;;;;;;15.47;8.23;;;30.50;99.90;;;;;;5051927;28;20456;-62
2021/08/14 12:19:15;;;;;;;12.20;7.93;;;30.50;99.90;;;;;;5051147;28;20483;-63
2021/08/14 12:21:43;;;;;;;13.20;7.40;;;30.60;99.90;;;;;;5051867;28;20453;-62
2021/08/14 12:24:12;;;;;;;15.77;7.80;;;30.70;99.90;;;;;;5054840;28;20443;-63
2021/08/14 12:26:40;;;;;;;14.50;7.33;;;30.90;99.90;;;;;;5062006;28;20497;-63
2021/08/14 12:29:10;;;;;;;13.20;7.60;;;31.00;99.90;;;;;;5071461;28;21149;-63
2021/08/14 12:31:52;;;;;;;11.60;7.77;;;31.10;99.90;;;;;;5053072;28;20816;-63
2021/08/14 12:34:24;;;;;;;16.37;7.47;;;31.20;99.90;;;;;;5056992;28;20479;-63
2021/08/14 12:37:02;;;;;;;13.37;7.30;;;31.20;99.90;;;;;;5051611;28;20451;-63
2021/08/14 12:42:27;;;;;;;16.53;8.00;;;31.30;99.90;;;;;;5088987;28;20573;-64
2021/08/14 12:44:55;;;;;;;9.90;7.57;;;31.20;99.90;;;;;;5089219;28;20457;-64
2021/08/14 12:47:26;;;;;;;11.83;6.90;;;30.90;99.90;;;;;;5089001;28;20449;-64
2021/08/14 12:50:15;;;;;;;17.63;7.67;;;31.00;99.90;;;;;;5074969;28;21004;-63